createdAt,value
2015-06-14T00:00:07.039Z,95361
2015-06-14T00:00:25.664Z,95369
2015-06-14T00:00:44.648Z,95366
2015-06-14T00:01:03.181Z,95374
2015-06-14T00:01:21.759Z,95368
2015-06-14T00:01:40.259Z,95357
2015-06-14T00:01:58.634Z,95360
2015-06-14T00:02:17.074Z,95360
2015-06-14T00:02:35.871Z,95363
2015-06-14T00:02:54.371Z,95358
2015-06-14T00:03:13.170Z,95355
2015-06-14T00:03:31.560Z,95349
2015-06-14T00:03:49.982Z,95358
2015-06-14T00:04:08.466Z,95353
2015-06-14T00:04:26.970Z,95348
2015-06-14T00:04:45.345Z,95358
2015-06-14T00:05:03.720Z,95355
2015-06-14T00:05:22.330Z,95359
2015-06-14T00:05:40.926Z,95355
2015-06-14T00:05:59.535Z,95353
2015-06-14T01:15:46.563Z,95262
2015-06-14T01:16:04.969Z,95262
2015-06-14T01:16:26.641Z,95262
2015-06-14T01:16:45.332Z,95263
2015-06-14T01:17:03.894Z,95257
2015-06-14T01:17:22.535Z,95266
2015-06-14T01:17:40.881Z,95271
2015-06-14T01:17:59.427Z,95268
2015-06-14T01:18:17.818Z,95268
2015-06-14T01:18:36.818Z,95265
2015-06-14T01:18:55.055Z,95262
2015-06-14T01:19:13.477Z,95262
2015-06-14T01:19:32.493Z,95262
2015-06-14T01:19:51.167Z,95265
2015-06-14T01:20:09.917Z,95265
2015-06-14T01:20:28.448Z,95267
2015-06-14T01:20:46.932Z,95259
2015-06-14T01:21:05.310Z,95262
2015-06-14T01:21:23.732Z,95256
2015-06-14T01:21:42.326Z,95256
2015-06-14T01:22:00.764Z,95258
2015-06-14T01:22:19.156Z,95259
2015-06-14T01:22:37.609Z,95259
2015-06-14T01:22:56.109Z,95265
2015-06-14T01:23:14.534Z,95253
2015-06-14T01:23:33.144Z,95259
2015-06-14T01:23:51.659Z,95256
2015-06-14T01:24:10.364Z,95253
2015-06-14T01:24:28.864Z,95256
2015-06-14T01:24:47.317Z,95253
2015-06-14T01:25:05.708Z,95253
2015-06-14T01:25:24.383Z,95253
2015-06-14T01:25:42.774Z,95253
2015-06-14T01:26:01.289Z,95259
2015-06-14T01:26:19.867Z,95253
2015-06-14T01:26:38.260Z,95250
2015-06-14T01:26:56.729Z,95245
2015-06-14T01:27:15.276Z,95236
2015-06-14T01:27:33.732Z,95248
2015-06-14T01:27:52.154Z,95251
2015-06-14T01:28:10.544Z,95251
2015-06-14T01:28:29.154Z,95248
2015-06-14T01:28:47.577Z,95245
2015-06-14T01:29:06.281Z,95248
2015-06-14T01:29:24.671Z,95256
2015-06-14T01:29:43.330Z,95242
2015-06-14T01:30:01.862Z,95250
2015-06-14T01:30:20.315Z,95244
2015-06-14T01:30:38.799Z,95236
2015-06-14T01:30:58.380Z,95236
2015-06-14T01:31:17.037Z,95239
2015-06-14T01:31:35.630Z,95236
2015-06-14T01:31:54.398Z,95242
2015-06-14T01:32:12.992Z,95236
2015-06-14T01:32:31.570Z,95236
2015-06-14T01:32:50.072Z,95241
2015-06-14T01:33:08.509Z,95242
2015-06-14T01:33:27.087Z,95239
2015-06-14T01:33:45.884Z,95234
2015-06-14T01:34:04.419Z,95237
2015-06-14T01:34:22.887Z,95231
2015-06-14T01:34:41.309Z,95234
2015-06-14T01:34:59.747Z,95231
2015-06-14T01:35:18.358Z,95216
2015-06-14T01:35:36.780Z,95230
2015-06-14T01:35:55.436Z,95230
2015-06-14T01:36:13.970Z,95229
2015-06-14T01:36:32.595Z,95221
2015-06-14T01:36:50.970Z,95219
2015-06-14T01:37:09.564Z,95233
2015-06-14T01:37:28.020Z,95225
2015-06-14T01:37:46.520Z,95227
2015-06-14T01:38:05.114Z,95230
2015-06-14T01:38:23.616Z,95230
2015-06-14T01:38:41.991Z,95230
2015-06-14T01:39:00.429Z,95221
2015-06-14T01:39:18.804Z,95227
2015-06-14T01:39:37.540Z,95230
2015-06-14T01:39:56.477Z,95230
2015-06-14T01:40:14.946Z,95232
2015-06-14T01:40:33.465Z,95229
2015-06-14T01:40:51.918Z,95233
2015-06-14T01:41:10.699Z,95233
2015-06-14T01:41:29.264Z,95236
2015-06-14T01:41:47.779Z,95234
2015-06-14T01:42:06.311Z,95239
2015-06-14T01:42:24.889Z,95239
2015-06-14T01:42:43.282Z,95233
2015-06-14T01:43:01.876Z,95231
2015-06-14T01:43:20.517Z,95230
2015-06-14T01:43:38.939Z,95233
2015-06-14T01:43:57.316Z,95225
2015-06-14T01:44:15.894Z,95227
2015-06-14T01:44:34.519Z,95227
2015-06-14T01:44:53.068Z,95233
2015-06-14T01:45:11.568Z,95222
2015-06-14T01:45:30.036Z,95222
2015-06-14T01:45:48.458Z,95222
2015-06-14T01:46:06.977Z,95227
2015-06-14T01:46:25.430Z,95216
2015-06-14T01:46:43.883Z,95224
2015-06-14T01:47:02.370Z,95224
2015-06-14T01:47:20.917Z,95221
2015-06-14T01:47:39.386Z,95229
2015-06-14T01:47:58.120Z,95224
2015-06-14T01:48:16.560Z,95218
2015-06-14T01:48:35.029Z,95227
2015-06-14T01:48:53.466Z,95210
2015-06-14T01:49:11.891Z,95222
2015-06-14T01:49:30.469Z,95216
2015-06-14T01:49:49.000Z,95215
2015-06-14T01:50:07.438Z,95223
2015-06-14T01:50:26.143Z,95220
2015-06-14T01:50:44.674Z,95217
2015-06-14T01:51:03.112Z,95227
2015-06-14T01:51:21.521Z,95213
2015-06-14T01:51:40.068Z,95222
2015-06-14T01:51:58.584Z,95224
2015-06-14T01:52:16.974Z,95216
2015-06-14T01:52:35.398Z,95220
2015-06-14T01:52:53.867Z,95225
2015-06-14T01:53:12.445Z,95222
2015-06-14T01:53:31.228Z,95222
2015-06-14T01:53:49.822Z,95219
2015-06-14T01:54:08.275Z,95222
2015-06-14T01:54:26.806Z,95216
2015-06-14T01:54:45.200Z,95222
2015-06-14T01:55:03.575Z,95222
2015-06-14T01:55:22.122Z,95218
2015-06-14T01:55:40.718Z,95219
2015-06-14T01:55:59.343Z,95219
2015-06-14T01:56:17.843Z,95213
2015-06-14T01:56:36.468Z,95213
2015-06-14T01:56:55.033Z,95216
2015-06-14T01:57:13.502Z,95222
2015-06-14T01:57:32.017Z,95220
2015-06-14T01:57:50.473Z,95215
2015-06-14T01:58:09.098Z,95226
2015-06-14T01:58:28.113Z,95229
2015-06-14T01:58:46.616Z,95220
2015-06-14T01:59:05.101Z,95225
2015-06-14T01:59:23.616Z,95219
2015-06-14T01:59:42.116Z,95219
2015-06-14T02:00:00.760Z,95219
2015-06-14T02:00:19.260Z,95216
2015-06-14T02:00:37.854Z,95216
2015-06-14T02:00:56.385Z,95220
2015-06-14T02:01:14.856Z,95225
2015-06-14T02:01:33.262Z,95206
2015-06-14T02:01:51.856Z,95209
2015-06-14T02:02:10.359Z,95208
2015-06-14T02:02:28.827Z,95209
2015-06-14T02:02:47.249Z,95209
2015-06-14T02:03:05.859Z,95206
2015-06-14T02:03:24.329Z,95208
2015-06-14T02:03:42.782Z,95205
2015-06-14T02:04:01.298Z,95197
2015-06-14T02:04:19.816Z,95210
2015-06-14T02:04:38.425Z,95205
2015-06-14T02:04:56.831Z,95205
2015-06-14T02:05:15.347Z,95208
2015-06-14T02:05:33.881Z,95203
2015-06-14T02:05:52.303Z,95197
2015-06-14T02:06:10.709Z,95205
2015-06-14T02:06:29.211Z,95213
2015-06-14T02:06:47.727Z,95211
2015-06-14T02:07:06.211Z,95195
2015-06-14T02:07:24.914Z,95208
2015-06-14T02:07:43.402Z,95211
2015-06-14T02:08:01.917Z,95205
2015-06-14T02:08:20.449Z,95205
2015-06-14T02:08:38.904Z,95210
2015-06-14T02:08:57.498Z,95202
2015-06-14T02:09:15.919Z,95208
2015-06-14T02:09:34.482Z,95211
2015-06-14T02:09:53.001Z,95208
2015-06-14T02:10:11.688Z,95214
2015-06-14T02:10:30.297Z,95211
2015-06-14T02:10:48.925Z,95210
2015-06-14T02:11:07.316Z,95205
2015-06-14T02:11:25.941Z,95205
2015-06-14T02:11:44.519Z,95215
2015-06-14T02:12:03.006Z,95207
2015-06-14T02:12:21.443Z,95205
2015-06-14T02:12:39.881Z,95195
2015-06-14T02:12:58.523Z,95198
2015-06-14T02:13:16.976Z,95190
2015-06-14T02:13:35.633Z,95190
2015-06-14T02:13:54.166Z,95190
2015-06-14T02:14:12.588Z,95187
2015-06-14T02:14:31.056Z,95190
2015-06-14T02:14:49.556Z,95190
2015-06-14T02:15:08.028Z,95187
2015-06-14T02:15:26.419Z,95190
2015-06-14T02:15:45.403Z,95195
2015-06-14T02:16:04.031Z,95186
2015-06-14T02:16:22.516Z,95184
2015-06-14T02:16:41.078Z,95190
2015-06-14T02:16:59.672Z,95195
2015-06-14T02:17:18.049Z,95194
2015-06-14T02:17:36.518Z,95192
2015-06-14T02:17:55.033Z,95197
2015-06-14T02:18:13.471Z,95192
2015-06-14T02:18:31.863Z,95198
2015-06-14T02:18:50.285Z,95203
2015-06-14T02:19:08.879Z,95198
2015-06-14T02:19:27.320Z,95206
2015-06-14T02:19:45.930Z,95206
2015-06-14T02:20:04.524Z,95212
2015-06-14T02:20:22.977Z,95203
2015-06-14T02:20:41.369Z,95203
2015-06-14T02:20:59.760Z,95198
2015-06-14T02:21:18.151Z,95206
2015-06-14T02:21:36.621Z,95198
2015-06-14T02:21:54.996Z,95192
2015-06-14T02:22:13.387Z,95186
2015-06-14T02:22:31.793Z,95195
2015-06-14T02:22:50.327Z,95189
2015-06-14T02:23:08.890Z,95197
2015-06-14T02:23:27.265Z,95186
2015-06-14T02:23:45.829Z,95192
2015-06-14T02:24:04.267Z,95178
2015-06-14T02:24:22.658Z,95183
2015-06-14T02:24:41.189Z,95197
2015-06-14T02:24:59.692Z,95192
2015-06-14T02:25:18.114Z,95186
2015-06-14T02:25:36.536Z,95192
2015-06-14T02:25:54.991Z,95192
2015-06-14T02:26:13.553Z,95186
2015-06-14T02:26:32.147Z,95198
2015-06-14T02:26:50.694Z,95198
2015-06-14T02:27:09.180Z,95186
2015-06-14T02:27:27.868Z,95203
2015-06-14T02:27:46.321Z,95184
2015-06-14T02:28:04.793Z,95195
2015-06-14T02:28:23.183Z,95208
2015-06-14T02:28:40.918Z,95198
2015-06-14T02:28:59.339Z,95198
2015-06-14T02:29:18.061Z,95208
2015-06-14T02:29:36.749Z,95205
2015-06-14T02:29:55.327Z,95205
2015-06-14T02:30:13.766Z,95197
2015-06-14T02:30:32.235Z,95205
2015-06-14T02:30:50.657Z,95205
2015-06-14T02:31:09.048Z,95194
2015-06-14T02:31:27.457Z,95197
2015-06-14T02:31:46.097Z,95192
2015-06-14T02:32:04.488Z,95195
2015-06-14T02:32:22.818Z,95190
2015-06-14T02:32:41.506Z,95198
2015-06-14T02:32:59.928Z,95189
2015-06-14T02:33:18.443Z,95189
2015-06-14T02:33:36.898Z,95189
2015-06-14T02:33:55.320Z,95195
2015-06-14T02:34:13.726Z,95192
2015-06-14T02:34:32.136Z,95197
2015-06-14T02:34:50.698Z,95208
2015-06-14T02:35:09.323Z,95206
2015-06-14T02:35:27.904Z,95195
2015-06-14T02:35:46.342Z,95198
2015-06-14T02:36:04.795Z,95198
2015-06-14T02:36:23.311Z,95209
2015-06-14T02:36:41.828Z,95195
2015-06-14T02:37:00.250Z,95201
2015-06-14T02:37:18.703Z,95209
2015-06-14T02:37:37.219Z,95212
2015-06-14T02:37:55.611Z,95208
2015-06-14T02:38:14.268Z,95211
2015-06-14T02:38:32.955Z,95211
2015-06-14T02:38:50.911Z,95205
2015-06-14T02:39:09.411Z,95211
2015-06-14T02:39:27.802Z,95214
2015-06-14T02:39:46.239Z,95213
2015-06-14T02:40:04.835Z,95202
2015-06-14T02:40:23.288Z,95211
2015-06-14T02:40:41.757Z,95203
2015-06-14T02:41:00.385Z,95202
2015-06-14T02:41:18.869Z,95202
2015-06-14T02:41:37.354Z,95203
2015-06-14T02:41:55.901Z,95205
2015-06-14T02:42:14.356Z,95205
2015-06-14T02:42:32.903Z,95205
2015-06-14T02:42:51.668Z,95204
2015-06-14T02:43:10.218Z,95191
2015-06-14T02:43:28.828Z,95204
2015-06-14T02:43:47.296Z,95201
2015-06-14T02:44:05.781Z,95196
2015-06-14T02:44:24.345Z,95203
2015-06-14T02:44:42.939Z,95208
2015-06-14T02:45:01.408Z,95209
2015-06-14T02:45:20.161Z,95203
2015-06-14T02:45:38.864Z,95206
2015-06-14T02:45:57.286Z,95206
2015-06-14T02:46:15.803Z,95209
2015-06-14T02:46:34.428Z,95209
2015-06-14T02:46:52.991Z,95209
2015-06-14T02:47:11.428Z,95211
2015-06-14T02:47:30.103Z,95209
2015-06-14T02:47:48.572Z,95214
2015-06-14T02:48:07.166Z,95209
2015-06-14T02:48:25.588Z,95209
2015-06-14T02:48:44.261Z,95203
2015-06-14T02:49:02.715Z,95206
2015-06-14T02:49:21.355Z,95206
2015-06-14T02:49:39.827Z,95214
2015-06-14T02:49:58.686Z,95223
2015-06-14T02:50:17.389Z,95217
2015-06-14T02:50:35.891Z,95215
2015-06-14T02:50:54.423Z,95217
2015-06-14T02:51:12.891Z,95217
2015-06-14T02:51:31.454Z,95220
2015-06-14T02:51:49.987Z,95217
2015-06-14T02:52:07.737Z,95217
2015-06-14T02:52:26.128Z,95220
2015-06-14T02:52:44.550Z,95223
2015-06-14T02:53:03.054Z,95232
2015-06-14T02:53:21.491Z,95227
2015-06-14T02:53:40.101Z,95219
2015-06-14T02:53:58.649Z,95230
2015-06-14T02:54:17.259Z,95230
2015-06-14T02:54:36.040Z,95227
2015-06-14T02:54:54.839Z,95230
2015-06-14T02:55:13.230Z,95228
2015-06-14T02:55:31.683Z,95234
2015-06-14T02:55:50.120Z,95231
2015-06-14T02:56:08.747Z,95231
2015-06-14T02:56:27.435Z,95234
2015-06-14T02:56:45.935Z,95231
2015-06-14T02:57:04.469Z,95234
2015-06-14T02:57:23.031Z,95233
2015-06-14T02:57:41.547Z,95233
2015-06-14T02:58:00.156Z,95236
2015-06-14T02:58:18.769Z,95230
2015-06-14T02:58:37.503Z,95239
2015-06-14T02:58:56.191Z,95242
2015-06-14T02:59:14.646Z,95236
2015-06-14T02:59:33.021Z,95245
2015-06-14T02:59:51.583Z,95239
2015-06-14T03:00:09.990Z,95236
2015-06-14T03:00:28.446Z,95240
2015-06-14T03:00:49.836Z,95237
2015-06-14T03:01:08.446Z,95248
2015-06-14T03:01:26.948Z,95242
2015-06-14T03:01:45.729Z,95236
2015-06-14T03:02:04.260Z,95245
2015-06-14T03:02:22.885Z,95234
2015-06-14T03:02:41.357Z,95245
2015-06-14T03:02:59.716Z,95234
2015-06-14T03:03:18.248Z,95243
2015-06-14T03:03:36.718Z,95240
2015-06-14T03:03:55.171Z,95232
2015-06-14T03:04:13.609Z,95237
2015-06-14T03:04:32.078Z,95243
2015-06-14T03:04:50.455Z,95231
2015-06-14T03:05:09.033Z,95228
2015-06-14T03:05:27.423Z,95229
2015-06-14T03:05:45.848Z,95238
2015-06-14T03:06:04.551Z,95237
2015-06-14T03:06:22.989Z,95232
2015-06-14T03:06:41.442Z,95231
2015-06-14T03:07:00.086Z,95234
2015-06-14T03:07:18.554Z,95239
2015-06-14T03:07:37.023Z,95236
2015-06-14T03:07:55.510Z,95236
2015-06-14T03:08:14.135Z,95236
2015-06-14T03:08:32.650Z,95233
2015-06-14T03:08:51.056Z,95236
2015-06-14T03:09:09.512Z,95230
2015-06-14T03:09:28.152Z,95235
2015-06-14T03:09:46.871Z,95235
2015-06-14T03:10:05.390Z,95238
2015-06-14T03:10:23.780Z,95238
2015-06-14T03:10:42.483Z,95241
2015-06-14T03:11:00.921Z,95236
2015-06-14T03:11:19.360Z,95233
2015-06-14T03:11:37.892Z,95231
2015-06-14T03:11:55.657Z,95225
2015-06-14T03:12:14.145Z,95233
2015-06-14T03:12:32.629Z,95236
2015-06-14T03:12:51.176Z,95225
2015-06-14T03:13:09.691Z,95233
2015-06-14T03:13:28.240Z,95225
2015-06-14T03:13:46.693Z,95242
2015-06-14T03:14:05.084Z,95236
2015-06-14T03:14:23.570Z,95230
2015-06-14T03:14:41.992Z,95233
2015-06-14T03:15:00.508Z,95238
2015-06-14T03:15:19.070Z,95238
2015-06-14T03:15:37.823Z,95235
2015-06-14T03:15:56.245Z,95232
2015-06-14T03:16:14.667Z,95230
2015-06-14T03:16:33.092Z,95232
2015-06-14T03:16:51.670Z,95235
2015-06-14T03:17:10.264Z,95235
2015-06-14T03:17:28.795Z,95237
2015-06-14T03:17:47.408Z,95229
2015-06-14T03:18:05.939Z,95238
2015-06-14T03:18:24.439Z,95229
2015-06-14T03:18:43.019Z,95238
2015-06-14T03:19:01.410Z,95236
2015-06-14T03:19:19.831Z,95239
2015-06-14T03:19:38.331Z,95236
2015-06-14T03:19:56.865Z,95236
2015-06-14T03:20:15.318Z,95239
2015-06-14T03:20:33.802Z,95230
2015-06-14T03:20:52.274Z,95236
2015-06-14T03:21:10.665Z,95239
2015-06-14T03:21:29.133Z,95239
2015-06-14T03:21:47.665Z,95239
2015-06-14T03:22:06.324Z,95236
2015-06-14T03:22:24.699Z,95242
2015-06-14T03:22:43.089Z,95245
2015-06-14T03:23:01.482Z,95242
2015-06-14T03:23:19.998Z,95239
2015-06-14T03:23:38.451Z,95237
2015-06-14T03:23:56.888Z,95245
2015-06-14T03:24:15.359Z,95242
2015-06-14T03:24:34.109Z,95245
2015-06-14T03:24:52.625Z,95236
2015-06-14T03:25:11.158Z,95244
2015-06-14T03:25:29.783Z,95244
2015-06-14T03:25:48.267Z,95241
2015-06-14T03:26:06.674Z,95227
2015-06-14T03:26:25.209Z,95241
2015-06-14T03:26:43.631Z,95236
2015-06-14T03:27:01.990Z,95230
2015-06-14T03:27:20.492Z,95238
2015-06-14T03:27:38.930Z,95246
2015-06-14T03:27:57.414Z,95244
2015-06-14T03:28:15.836Z,95238
2015-06-14T03:28:34.338Z,95244
2015-06-14T03:28:52.775Z,95241
2015-06-14T03:29:11.197Z,95230
2015-06-14T03:29:29.653Z,95236
2015-06-14T03:29:48.091Z,95241
2015-06-14T03:30:06.653Z,95241
2015-06-14T03:30:25.060Z,95241
2015-06-14T03:30:43.452Z,95250
2015-06-14T03:31:01.890Z,95247
2015-06-14T03:31:20.312Z,95239
2015-06-14T03:31:38.752Z,95241
2015-06-14T03:31:57.190Z,95244
2015-06-14T03:32:15.799Z,95241
2015-06-14T03:32:34.377Z,95252
2015-06-14T03:32:52.754Z,95258
2015-06-14T03:33:11.238Z,95249
2015-06-14T03:33:29.676Z,95244
2015-06-14T03:33:48.210Z,95250
2015-06-14T03:34:06.710Z,95255
2015-06-14T03:34:25.163Z,95241
2015-06-14T03:34:43.616Z,95241
2015-06-14T03:35:02.056Z,95242
2015-06-14T03:35:20.540Z,95247
2015-06-14T03:35:39.056Z,95247
2015-06-14T03:35:57.574Z,95249
2015-06-14T03:36:16.027Z,95244
2015-06-14T03:36:34.449Z,95238
2015-06-14T03:36:52.964Z,95244
2015-06-14T03:37:11.483Z,95238
2015-06-14T03:37:29.936Z,95235
2015-06-14T03:37:48.405Z,95229
2015-06-14T03:38:06.938Z,95241
2015-06-14T03:38:24.719Z,95243
2015-06-14T03:38:43.157Z,95229
2015-06-14T03:39:01.610Z,95234
2015-06-14T03:39:20.066Z,95237
2015-06-14T03:39:38.441Z,95234
2015-06-14T03:39:56.988Z,95234
2015-06-14T03:40:15.413Z,95242
2015-06-14T03:40:33.788Z,95234
2015-06-14T03:40:52.256Z,95228
2015-06-14T03:41:10.897Z,95225
2015-06-14T03:41:29.383Z,95228
2015-06-14T03:41:47.758Z,95228
2015-06-14T03:42:06.180Z,95234
2015-06-14T03:42:24.683Z,95228
2015-06-14T03:42:43.215Z,95234
2015-06-14T03:43:01.590Z,95231
2015-06-14T03:43:20.043Z,95234
2015-06-14T03:43:38.576Z,95223
2015-06-14T03:43:57.092Z,95226
2015-06-14T03:44:15.498Z,95231
2015-06-14T03:44:33.969Z,95231
2015-06-14T03:44:52.500Z,95237
2015-06-14T03:45:10.937Z,95232
2015-06-14T03:45:29.562Z,95232
2015-06-14T03:45:50.971Z,95233
2015-06-14T03:46:09.377Z,95247
2015-06-14T03:46:27.783Z,95234
2015-06-14T03:46:46.318Z,95234
2015-06-14T03:47:04.756Z,95225
2015-06-14T03:47:23.146Z,95230
2015-06-14T03:47:41.539Z,95230
2015-06-14T03:47:59.961Z,95235
2015-06-14T03:48:18.461Z,95235
2015-06-14T03:48:36.289Z,95235
2015-06-14T03:48:54.697Z,95229
2015-06-14T03:49:13.088Z,95234
2015-06-14T03:49:31.604Z,95229
2015-06-14T03:49:50.060Z,95220
2015-06-14T03:50:08.497Z,95228
2015-06-14T03:50:26.888Z,95223
2015-06-14T03:50:45.357Z,95228
2015-06-14T03:51:03.859Z,95220
2015-06-14T03:51:22.359Z,95214
2015-06-14T03:51:40.749Z,95217
2015-06-14T03:51:59.173Z,95220
2015-06-14T03:52:17.782Z,95222
2015-06-14T03:52:36.220Z,95213
2015-06-14T03:52:54.673Z,95227
2015-06-14T03:53:13.285Z,95219
2015-06-14T03:53:32.051Z,95216
2015-06-14T03:53:50.535Z,95222
2015-06-14T03:54:09.147Z,95211
2015-06-14T03:54:27.662Z,95219
2015-06-14T03:54:46.053Z,95224
2015-06-14T03:55:04.444Z,95221
2015-06-14T03:55:22.869Z,95213
2015-06-14T03:55:41.244Z,95210
2015-06-14T03:55:59.759Z,95213
2015-06-14T03:56:18.433Z,95218
2015-06-14T03:56:36.839Z,95218
2015-06-14T03:56:55.277Z,95218
2015-06-14T03:57:13.871Z,95218
2015-06-14T03:57:32.374Z,95224
2015-06-14T03:57:50.858Z,95215
2015-06-14T03:58:09.280Z,95218
2015-06-14T03:58:27.845Z,95212
2015-06-14T03:58:46.173Z,95215
2015-06-14T03:59:04.642Z,95218
2015-06-14T03:59:23.048Z,95223
2015-06-14T03:59:41.549Z,95215
2015-06-14T04:00:00.112Z,95217
2015-06-14T04:00:18.534Z,95217
2015-06-14T04:00:37.037Z,95218
2015-06-14T04:00:55.490Z,95223
2015-06-14T04:01:13.943Z,95221
2015-06-14T04:01:32.334Z,95224
2015-06-14T04:01:51.071Z,95218
2015-06-14T04:02:09.571Z,95218
2015-06-14T04:02:28.118Z,95223
2015-06-14T04:02:46.714Z,95204
2015-06-14T04:03:05.120Z,95218
2015-06-14T04:03:23.636Z,95215
2015-06-14T04:03:42.057Z,95206
2015-06-14T04:04:00.559Z,95209
2015-06-14T04:04:19.153Z,95212
2015-06-14T04:04:37.575Z,95209
2015-06-14T04:04:56.406Z,95214
2015-06-14T04:05:15.016Z,95211
2015-06-14T04:05:33.641Z,95202
2015-06-14T04:05:52.377Z,95211
2015-06-14T04:06:10.955Z,95211
2015-06-14T04:06:29.346Z,95222
2015-06-14T04:06:47.721Z,95210
2015-06-14T04:07:06.381Z,95219
2015-06-14T04:07:24.881Z,95216
2015-06-14T04:07:43.365Z,95213
2015-06-14T04:08:01.772Z,95218
2015-06-14T04:08:20.336Z,95218
2015-06-14T04:08:38.758Z,95221
2015-06-14T04:08:57.289Z,95221
2015-06-14T04:09:15.933Z,95215
2015-06-14T04:09:34.589Z,95215
2015-06-14T04:09:53.089Z,95215
2015-06-14T04:10:11.591Z,95218
2015-06-14T04:10:30.247Z,95218
2015-06-14T04:10:49.091Z,95215
2015-06-14T04:11:07.497Z,95214
2015-06-14T04:11:26.156Z,95223
2015-06-14T04:11:44.921Z,95209
2015-06-14T04:12:03.468Z,95220
2015-06-14T04:12:21.971Z,95217
2015-06-14T04:12:40.346Z,95223
2015-06-14T04:12:58.846Z,95213
2015-06-14T04:13:17.221Z,95219
2015-06-14T04:13:35.943Z,95214
2015-06-14T04:13:54.412Z,95217
2015-06-14T04:14:12.943Z,95216
2015-06-14T04:14:31.522Z,95213
2015-06-14T04:14:50.006Z,95213
2015-06-14T04:15:08.444Z,95224
2015-06-14T04:15:26.959Z,95218
2015-06-14T04:15:45.384Z,95218
2015-06-14T04:16:04.072Z,95218
2015-06-14T04:16:22.681Z,95213
2015-06-14T04:16:41.103Z,95218
2015-06-14T04:16:59.590Z,95215
2015-06-14T04:17:18.231Z,95218
2015-06-14T04:17:36.903Z,95215
2015-06-14T04:17:55.546Z,95215
2015-06-14T04:18:14.077Z,95218
2015-06-14T04:18:32.499Z,95221
2015-06-14T04:18:50.874Z,95215
2015-06-14T04:19:09.391Z,95206
2015-06-14T04:19:27.907Z,95215
2015-06-14T04:19:46.485Z,95209
2015-06-14T04:20:05.254Z,95209
2015-06-14T04:20:23.754Z,95206
2015-06-14T04:20:42.176Z,95208
2015-06-14T04:21:00.551Z,95214
2015-06-14T04:21:19.209Z,95208
2015-06-14T04:21:37.849Z,95213
2015-06-14T04:21:56.334Z,95216
2015-06-14T04:22:14.759Z,95213
2015-06-14T04:22:33.431Z,95207
2015-06-14T04:22:51.821Z,95207
2015-06-14T04:23:10.446Z,95210
2015-06-14T04:23:28.901Z,95210
2015-06-14T04:23:47.276Z,95201
2015-06-14T04:24:05.776Z,95210
2015-06-14T04:24:24.249Z,95207
2015-06-14T04:24:42.765Z,95216
2015-06-14T04:25:01.218Z,95210
2015-06-14T04:25:19.671Z,95216
2015-06-14T04:25:38.189Z,95201
2015-06-14T04:25:56.798Z,95212
2015-06-14T04:26:15.235Z,95207
2015-06-14T04:26:33.800Z,95210
2015-06-14T04:26:52.597Z,95215
2015-06-14T04:27:10.987Z,95215
2015-06-14T04:27:29.443Z,95206
2015-06-14T04:27:47.927Z,95204
2015-06-14T04:28:06.458Z,95207
2015-06-14T04:28:24.880Z,95204
2015-06-14T04:28:43.508Z,95196
2015-06-14T04:29:01.961Z,95207
2015-06-14T04:29:20.617Z,95210
2015-06-14T04:29:39.196Z,95204
2015-06-14T04:29:57.588Z,95204
2015-06-14T04:30:16.104Z,95196
2015-06-14T04:30:34.510Z,95196
2015-06-14T04:30:53.122Z,95206
2015-06-14T04:31:11.529Z,95198
2015-06-14T04:31:29.935Z,95203
2015-06-14T04:31:48.294Z,95203
2015-06-14T04:32:06.921Z,95203
2015-06-14T04:32:25.312Z,95198
2015-06-14T04:32:43.921Z,95203
2015-06-14T04:33:02.549Z,95198
2015-06-14T04:33:21.002Z,95203
2015-06-14T04:33:39.815Z,95208
2015-06-14T04:33:58.412Z,95195
2015-06-14T04:34:16.834Z,95198
2015-06-14T04:34:35.443Z,95195
2015-06-14T04:34:54.177Z,95208
2015-06-14T04:35:12.679Z,95198
2015-06-14T04:35:31.117Z,95205
2015-06-14T04:35:49.789Z,95205
2015-06-14T04:36:08.556Z,95208
2015-06-14T04:36:26.963Z,95205
2015-06-14T04:36:45.369Z,95195
2015-06-14T04:37:03.900Z,95202
2015-06-14T04:37:22.512Z,95203
2015-06-14T04:37:40.903Z,95203
2015-06-14T04:37:59.591Z,95205
2015-06-14T04:38:18.311Z,95194
2015-06-14T04:38:36.718Z,95205
2015-06-14T04:38:55.249Z,95194
2015-06-14T04:39:13.796Z,95194
2015-06-14T04:39:32.252Z,95202
2015-06-14T04:39:50.736Z,95191
2015-06-14T04:40:09.267Z,95202
2015-06-14T04:40:27.752Z,95197
2015-06-14T04:40:46.191Z,95196
2015-06-14T04:41:04.582Z,95185
2015-06-14T04:41:23.035Z,95196
2015-06-14T04:41:41.616Z,95193
2015-06-14T04:42:00.163Z,95193
2015-06-14T04:42:18.601Z,95185
2015-06-14T04:42:37.085Z,95190
2015-06-14T04:42:55.790Z,95188
2015-06-14T04:43:14.243Z,95185
2015-06-14T04:43:32.774Z,95190
2015-06-14T04:43:51.246Z,95193
2015-06-14T04:44:09.715Z,95185
2015-06-14T04:44:28.121Z,95187
2015-06-14T04:44:46.824Z,95184
2015-06-14T04:45:05.295Z,95178
2015-06-14T04:45:23.779Z,95183
2015-06-14T04:45:42.436Z,95186
2015-06-14T04:46:00.907Z,95192
2015-06-14T04:46:19.314Z,95186
2015-06-14T04:46:37.907Z,95192
2015-06-14T04:46:56.548Z,95189
2015-06-14T04:47:15.175Z,95181
2015-06-14T04:47:33.613Z,95189
2015-06-14T04:47:52.425Z,95195
2015-06-14T04:48:10.928Z,95186
2015-06-14T04:48:29.444Z,95186
2015-06-14T04:48:47.834Z,95192
2015-06-14T04:49:06.412Z,95183
2015-06-14T04:49:24.993Z,95186
2015-06-14T04:49:43.461Z,95180
2015-06-14T04:50:01.914Z,95177
2015-06-14T04:50:20.605Z,95186
2015-06-14T04:50:38.996Z,95182
2015-06-14T04:50:57.542Z,95185
2015-06-14T04:51:15.917Z,95180
2015-06-14T04:51:34.513Z,95179
2015-06-14T04:51:53.076Z,95179
2015-06-14T04:52:11.498Z,95179
2015-06-14T04:52:30.422Z,95185
2015-06-14T04:52:49.141Z,95176
2015-06-14T04:53:07.610Z,95179
2015-06-14T04:53:26.094Z,95170
2015-06-14T04:53:44.612Z,95173
2015-06-14T04:54:03.096Z,95181
2015-06-14T04:54:21.831Z,95181
2015-06-14T04:54:40.302Z,95181
2015-06-14T04:54:58.787Z,95173
2015-06-14T04:55:17.427Z,95181
2015-06-14T04:55:35.927Z,95176
2015-06-14T04:55:54.414Z,95179
2015-06-14T04:56:12.851Z,95165
2015-06-14T04:56:31.258Z,95176
2015-06-14T04:56:49.714Z,95173
2015-06-14T04:57:08.417Z,95176
2015-06-14T04:57:26.870Z,95178
2015-06-14T04:57:45.261Z,95170
2015-06-14T04:58:03.700Z,95178
2015-06-14T04:58:22.106Z,95175
2015-06-14T04:58:40.653Z,95178
2015-06-14T04:58:59.078Z,95186
2015-06-14T04:59:17.500Z,95180
2015-06-14T04:59:36.016Z,95174
2015-06-14T04:59:54.641Z,95177
2015-06-14T05:00:13.033Z,95179
2015-06-14T05:00:31.502Z,95179
2015-06-14T05:00:50.018Z,95176
2015-06-14T05:01:08.613Z,95182
2015-06-14T05:01:27.066Z,95179
2015-06-14T05:01:45.504Z,95179
2015-06-14T05:02:04.098Z,95176
2015-06-14T05:02:22.554Z,95181
2015-06-14T05:02:41.069Z,95178
2015-06-14T05:02:59.929Z,95178
2015-06-14T05:03:18.541Z,95182
2015-06-14T05:03:37.026Z,95176
2015-06-14T05:03:55.635Z,95182
2015-06-14T05:04:14.088Z,95176
2015-06-14T05:04:32.575Z,95185
2015-06-14T05:04:51.044Z,95182
2015-06-14T05:05:09.700Z,95187
2015-06-14T05:05:28.187Z,95184
2015-06-14T05:05:46.609Z,95187
2015-06-14T05:06:05.202Z,95187
2015-06-14T05:06:23.718Z,95178
2015-06-14T05:06:42.329Z,95183
2015-06-14T05:07:00.939Z,95178
2015-06-14T05:07:19.408Z,95180
2015-06-14T05:07:37.817Z,95182
2015-06-14T05:07:56.239Z,95182